Ship Status Report: callsign UBJF2

sailwx.info

Track history (hours):
 
Tides and Currents Weather Stations Pressure Air Temp Water Temp Dewpoint Dewpoint Depression Visibility Wind Speed Wind Dir Waves Ship Positions

Callsign UBJF2 (name unknown)

Last reported at 2017-Sep-07 21:33 UTC. Time now 2017-Sep-19 16:55 UTC.
Position N 60°28' E 028°15'.
Warning: this ship's position is 11 days out of date.

AWS

Date/timePositionNaut miles runAvg speedWind from/ knotsBaromVisibWave heightAir tempDewpointWater temp
2017-Sep-07 21:33N 60°28' E 028°15'0 4.8
2017-Sep-07 21:30N 60°28' E 028°15'2 4.4
2017-Sep-07 21:00N 60°26' E 028°14'2 4.9
2017-Sep-07 20:30N 60°25' E 028°09'2 4.4
2017-Sep-07 20:01N 60°24' E 028°05'3 5.4
2017-Sep-07 19:30N 60°21' E 028°07'3 5.2
2017-Sep-07 19:00N 60°19' E 028°09'3 5.1
2017-Sep-07 18:30N 60°17' E 028°11'3 5.0
2017-Sep-07 18:00N 60°14' E 028°12'3 5.1
2017-Sep-07 17:30N 60°12' E 028°14'2 5.0
2017-Sep-07 17:00N 60°09' E 028°15'2 4.8
2017-Sep-07 16:30N 60°07' E 028°17'2 3.6
2017-Sep-07 15:59N 60°06' E 028°20'2 3.9
2017-Sep-07 15:30N 60°05' E 028°24'2 4.9
2017-Sep-07 15:00N 60°04' E 028°28'3 5.0
2017-Sep-07 14:28N 60°03' E 028°33'2 5.0
2017-Sep-07 14:00N 60°03' E 028°38'3 5.1
2017-Sep-07 13:30N 60°03' E 028°43'3 5.2
2017-Sep-07 12:55N 60°03' E 028°49'25 5.3
2017-Sep-07 08:15N 60°00' E 029°38'2 3.8
2017-Sep-07 07:36N 59°59' E 029°43'0 0.2
2017-Sep-07 07:30N 59°59' E 029°43'0 0.0
2017-Sep-07 06:51N 59°59' E 029°43'0 0.0
2017-Sep-07 06:25N 59°59' E 029°43'3 0.2
2017-Sep-06 14:42N 59°58' E 029°49'1 4.9
2017-Sep-06 14:29N 59°57' E 029°51'1 2.4
2017-Sep-06 14:00N 59°58' E 029°52'2 4.5
2017-Sep-06 13:30N 60°00' E 029°51'2 3.3
2017-Sep-06 12:59N 60°02' E 029°53'  
2017-Sep-02 11:04N 60°02' E 029°57'1 4.9
2017-Sep-02 10:56N 60°02' E 029°55'2 4.8
2017-Sep-02 10:29N 60°01' E 029°51'2 4.4
2017-Sep-02 10:00N 59°59' E 029°51'3 5.0
2017-Sep-02 09:30N 59°57' E 029°53'3 4.4
2017-Sep-02 08:56N 59°58' E 029°48'3 0.8
2017-Sep-02 04:57N 59°59' E 029°42'0 0.0
2017-Sep-01 16:51N 59°59' E 029°42'0 0.0
2017-Sep-01 16:30N 59°59' E 029°42'0 0.0
2017-Sep-01 15:42N 59°59' E 029°42'0 0.0
2017-Sep-01 15:23N 59°59' E 029°42'0 0.0
2017-Sep-01 14:47N 59°59' E 029°42'0 0.0
2017-Sep-01 14:28N 59°59' E 029°42'0 0.9
2017-Sep-01 14:00N 59°59' E 029°43'3 4.0
2017-Sep-01 13:16N 59°58' E 029°48'1 3.9
2017-Sep-01 13:00N 59°57' E 029°50'2 3.9
2017-Sep-01 12:30N 59°57' E 029°54'2 4.0
2017-Sep-01 12:00N 59°56' E 029°58'2 3.9
2017-Sep-01 11:30N 59°55' E 030°01'2 3.8
2017-Sep-01 11:00N 59°54' E 030°05'2 4.0
2017-Sep-01 10:31N 59°54' E 030°08'2 4.1
2017-Sep-01 10:01N 59°53' E 030°12'1 1.9
2017-Sep-01 09:30N 59°52' E 030°14'0 0.0
2017-Sep-01 08:57N 59°52' E 030°14'0 0.1
2017-Sep-01 08:31N 59°52' E 030°14'0 0.0
2017-Sep-01 00:57N 59°52' E 030°14'1 1.3
2017-Sep-01 00:30N 59°52' E 030°13'2 4.5
2017-Sep-01 00:00N 59°54' E 030°09'2 4.7
2017-Aug-31 23:30N 59°54' E 030°04'2 4.8
2017-Aug-31 23:00N 59°55' E 030°00'1 2.6
2017-Aug-31 22:30N 59°55' E 029°57'0 0.0
2017-Aug-31 22:00N 59°55' E 029°57'0 0.0
2017-Aug-31 21:30N 59°55' E 029°57'0 0.0
2017-Aug-31 21:00N 59°55' E 029°57'1 1.7
2017-Aug-31 20:29N 59°56' E 029°56'2 4.3
2017-Aug-31 20:00N 59°57' E 029°53'2 4.3
2017-Aug-31 19:30N 59°59' E 029°51'2 4.3
2017-Aug-31 18:59N 60°01' E 029°50'2 4.1
2017-Aug-31 18:30N 60°02' E 029°54'  
Track history (hours):
 
Tides and Currents Weather Stations Pressure Air Temp Water Temp Dewpoint Dewpoint Depression Visibility Wind Speed Wind Dir Waves Ship Positions

Callsign UBJF2 (name unknown)

Last reported at 2017-Sep-07 21:33 UTC. Time now 2017-Sep-19 16:55 UTC.
Position N 60°28' E 028°15'.
Warning: this ship's position is 11 days out of date.

AWS

Date/timePositionNaut miles runAvg speedWind from/ knotsBaromVisibWave heightAir tempDewpointWater temp
2017-Sep-07 21:33N 60°28' E 028°15'0 4.8
2017-Sep-07 21:30N 60°28' E 028°15'2 4.4
2017-Sep-07 21:00N 60°26' E 028°14'2 4.9
2017-Sep-07 20:30N 60°25' E 028°09'2 4.4
2017-Sep-07 20:01N 60°24' E 028°05'3 5.4
2017-Sep-07 19:30N 60°21' E 028°07'3 5.2
2017-Sep-07 19:00N 60°19' E 028°09'3 5.1
2017-Sep-07 18:30N 60°17' E 028°11'3 5.0
2017-Sep-07 18:00N 60°14' E 028°12'3 5.1
2017-Sep-07 17:30N 60°12' E 028°14'2 5.0
2017-Sep-07 17:00N 60°09' E 028°15'2 4.8
2017-Sep-07 16:30N 60°07' E 028°17'2 3.6
2017-Sep-07 15:59N 60°06' E 028°20'2 3.9
2017-Sep-07 15:30N 60°05' E 028°24'2 4.9
2017-Sep-07 15:00N 60°04' E 028°28'3 5.0
2017-Sep-07 14:28N 60°03' E 028°33'2 5.0
2017-Sep-07 14:00N 60°03' E 028°38'3 5.1
2017-Sep-07 13:30N 60°03' E 028°43'3 5.2
2017-Sep-07 12:55N 60°03' E 028°49'25 5.3
2017-Sep-07 08:15N 60°00' E 029°38'2 3.8
2017-Sep-07 07:36N 59°59' E 029°43'0 0.2
2017-Sep-07 07:30N 59°59' E 029°43'0 0.0
2017-Sep-07 06:51N 59°59' E 029°43'0 0.0
2017-Sep-07 06:25N 59°59' E 029°43'3 0.2
2017-Sep-06 14:42N 59°58' E 029°49'1 4.9
2017-Sep-06 14:29N 59°57' E 029°51'1 2.4
2017-Sep-06 14:00N 59°58' E 029°52'2 4.5
2017-Sep-06 13:30N 60°00' E 029°51'2 3.3
2017-Sep-06 12:59N 60°02' E 029°53'  
2017-Sep-02 11:04N 60°02' E 029°57'1 4.9
2017-Sep-02 10:56N 60°02' E 029°55'2 4.8
2017-Sep-02 10:29N 60°01' E 029°51'2 4.4
2017-Sep-02 10:00N 59°59' E 029°51'3 5.0
2017-Sep-02 09:30N 59°57' E 029°53'3 4.4
2017-Sep-02 08:56N 59°58' E 029°48'3 0.8
2017-Sep-02 04:57N 59°59' E 029°42'0 0.0
2017-Sep-01 16:51N 59°59' E 029°42'0 0.0
2017-Sep-01 16:30N 59°59' E 029°42'0 0.0
2017-Sep-01 15:42N 59°59' E 029°42'0 0.0
2017-Sep-01 15:23N 59°59' E 029°42'0 0.0
2017-Sep-01 14:47N 59°59' E 029°42'0 0.0
2017-Sep-01 14:28N 59°59' E 029°42'0 0.9
2017-Sep-01 14:00N 59°59' E 029°43'3 4.0
2017-Sep-01 13:16N 59°58' E 029°48'1 3.9
2017-Sep-01 13:00N 59°57' E 029°50'2 3.9
2017-Sep-01 12:30N 59°57' E 029°54'2 4.0
2017-Sep-01 12:00N 59°56' E 029°58'2 3.9
2017-Sep-01 11:30N 59°55' E 030°01'2 3.8
2017-Sep-01 11:00N 59°54' E 030°05'2 4.0
2017-Sep-01 10:31N 59°54' E 030°08'2 4.1
2017-Sep-01 10:01N 59°53' E 030°12'1 1.9
2017-Sep-01 09:30N 59°52' E 030°14'0 0.0
2017-Sep-01 08:57N 59°52' E 030°14'0 0.1
2017-Sep-01 08:31N 59°52' E 030°14'0 0.0
2017-Sep-01 00:57N 59°52' E 030°14'1 1.3
2017-Sep-01 00:30N 59°52' E 030°13'2 4.5
2017-Sep-01 00:00N 59°54' E 030°09'2 4.7
2017-Aug-31 23:30N 59°54' E 030°04'2 4.8
2017-Aug-31 23:00N 59°55' E 030°00'1 2.6
2017-Aug-31 22:30N 59°55' E 029°57'0 0.0
2017-Aug-31 22:00N 59°55' E 029°57'0 0.0
2017-Aug-31 21:30N 59°55' E 029°57'0 0.0
2017-Aug-31 21:00N 59°55' E 029°57'1 1.7
2017-Aug-31 20:29N 59°56' E 029°56'2 4.3
2017-Aug-31 20:00N 59°57' E 029°53'2 4.3
2017-Aug-31 19:30N 59°59' E 029°51'2 4.3
2017-Aug-31 18:59N 60°01' E 029°50'2 4.1
2017-Aug-31 18:30N 60°02' E 029°54'  

Dump ship's entire track history